aviador You're here:

DTTJ Decoded Metar

DJERBA in TUNISIA
Report Time2017-10-19 09:00:00
UTC Time2017-10-19 09:07:10
Flight Rules vfr VFR
Wind160° at 08 kt
W.Decomp.*RWY 09: 2.9 kt HW 7.5 kt RCW
W.Rank160° ranks 15
Current wind is above 160° avg. (6.4)
Visibility9999 m
Phenomena:N/A
Clouds:Few 020 Hf
Expected CloudBase > 5,600 ft AGL from Temp-Dew spread
CeilingNone
Temp26°C (ISA +11)
Dew Point12°C (42% RH)
AAT23.8°C
QNH1017 hPa
Density Alt1,342 ft
Elevation13 ft
Report Wrong Elevation
Raw Report
METAR DTTJ 190900Z 16008KT 120V180 9999 FEW020 26/12 Q1017 NOSIG=

Extra information for DTTJ:More info

Metar Taf Metar & Taf Last 4 Metars F.Rules Stats Wind Profile Meteogram Temp Stats Airport Information Weather charts Add Link Nearby VenuesMetar ALERT Operation Metar Decoded Social comments